sensor_id;sensor_type;location;lat;lon;timestamp;temperature;humidity
8666;DHT22;4370;48.916;8.380;2022-08-07T00:01:12;13.40;52.20
8666;DHT22;4370;48.916;8.380;2022-08-07T00:03:37;13.30;52.00
8666;DHT22;4370;48.916;8.380;2022-08-07T00:06:04;13.40;73.30
8666;DHT22;4370;48.916;8.380;2022-08-07T00:08:30;13.30;52.00
8666;DHT22;4370;48.916;8.380;2022-08-07T00:10:55;13.20;52.20
8666;DHT22;4370;48.916;8.380;2022-08-07T00:13:21;12.80;51.70
8666;DHT22;4370;48.916;8.380;2022-08-07T00:15:48;13.10;72.70
8666;DHT22;4370;48.916;8.380;2022-08-07T00:18:16;13.30;73.20
8666;DHT22;4370;48.916;8.380;2022-08-07T00:20:43;13.20;51.80
8666;DHT22;4370;48.916;8.380;2022-08-07T00:23:08;13.20;51.70
8666;DHT22;4370;48.916;8.380;2022-08-07T00:25:34;13.20;51.60
8666;DHT22;4370;48.916;8.380;2022-08-07T00:30:26;12.50;73.70
8666;DHT22;4370;48.916;8.380;2022-08-07T00:32:52;12.70;72.00
8666;DHT22;4370;48.916;8.380;2022-08-07T00:35:19;12.80;52.50
8666;DHT22;4370;48.916;8.380;2022-08-07T00:37:45;12.70;52.70
8666;DHT22;4370;48.916;8.380;2022-08-07T00:40:11;12.60;52.80
8666;DHT22;4370;48.916;8.380;2022-08-07T00:42:37;12.50;52.80
8666;DHT22;4370;48.916;8.380;2022-08-07T00:45:03;12.70;75.80
8666;DHT22;4370;48.916;8.380;2022-08-07T00:49:55;12.50;53.70
8666;DHT22;4370;48.916;8.380;2022-08-07T00:52:21;12.30;54.10
8666;DHT22;4370;48.916;8.380;2022-08-07T00:54:47;12.50;75.70
8666;DHT22;4370;48.916;8.380;2022-08-07T00:57:13;12.30;54.00
8666;DHT22;4370;48.916;8.380;2022-08-07T00:59:40;11.70;76.70
8666;DHT22;4370;48.916;8.380;2022-08-07T01:02:07;11.90;54.50
8666;DHT22;4370;48.916;8.380;2022-08-07T01:06:59;11.40;79.60
8666;DHT22;4370;48.916;8.380;2022-08-07T01:11:52;11.30;75.50
8666;DHT22;4370;48.916;8.380;2022-08-07T01:14:19;11.40;75.70
8666;DHT22;4370;48.916;8.380;2022-08-07T01:16:45;11.50;66.60
8666;DHT22;4370;48.916;8.380;2022-08-07T01:21:38;12.10;74.80
8666;DHT22;4370;48.916;8.380;2022-08-07T01:24:05;12.00;74.60
8666;DHT22;4370;48.916;8.380;2022-08-07T01:26:31;12.10;74.70
8666;DHT22;4370;48.916;8.380;2022-08-07T01:28:57;12.10;74.90
8666;DHT22;4370;48.916;8.380;2022-08-07T01:31:23;11.60;74.60
8666;DHT22;4370;48.916;8.380;2022-08-07T01:33:59;12.10;75.30
8666;DHT22;4370;48.916;8.380;2022-08-07T01:36:26;12.10;56.50
8666;DHT22;4370;48.916;8.380;2022-08-07T01:38:53;10.30;55.10
8666;DHT22;4370;48.916;8.380;2022-08-07T01:41:19;12.00;56.70
8666;DHT22;4370;48.916;8.380;2022-08-07T01:43:46;11.70;75.70
8666;DHT22;4370;48.916;8.380;2022-08-07T01:46:13;11.90;57.00
8666;DHT22;4370;48.916;8.380;2022-08-07T01:48:40;12.10;76.20
8666;DHT22;4370;48.916;8.380;2022-08-07T01:51:08;11.50;79.60
8666;DHT22;4370;48.916;8.380;2022-08-07T01:53:36;11.80;58.00
8666;DHT22;4370;48.916;8.380;2022-08-07T01:56:11;11.50;76.40
8666;DHT22;4370;48.916;8.380;2022-08-07T01:58:43;11.80;77.00
8666;DHT22;4370;48.916;8.380;2022-08-07T02:01:13;11.40;76.60
8666;DHT22;4370;48.916;8.380;2022-08-07T02:03:46;11.50;76.80
8666;DHT22;4370;48.916;8.380;2022-08-07T02:06:15;11.30;77.10
8666;DHT22;4370;48.916;8.380;2022-08-07T02:13:36;11.60;77.20
8666;DHT22;4370;48.916;8.380;2022-08-07T02:16:03;10.90;61.60
8666;DHT22;4370;48.916;8.380;2022-08-07T02:18:33;10.90;65.00
8666;DHT22;4370;48.916;8.380;2022-08-07T02:21:02;11.00;59.60
8666;DHT22;4370;48.916;8.380;2022-08-07T02:23:29;11.40;76.20
8666;DHT22;4370;48.916;8.380;2022-08-07T02:25:57;11.20;60.90
8666;DHT22;4370;48.916;8.380;2022-08-07T02:28:26;10.80;79.20
8666;DHT22;4370;48.916;8.380;2022-08-07T02:30:53;11.00;79.60
8666;DHT22;4370;48.916;8.380;2022-08-07T02:33:22;11.10;61.10
8666;DHT22;4370;48.916;8.380;2022-08-07T02:38:17;11.10;61.80
8666;DHT22;4370;48.916;8.380;2022-08-07T02:40:44;11.00;61.80
8666;DHT22;4370;48.916;8.380;2022-08-07T02:45:38;10.90;62.10
8666;DHT22;4370;48.916;8.380;2022-08-07T02:50:33;10.90;62.60
8666;DHT22;4370;48.916;8.380;2022-08-07T02:53:03;10.90;62.90
8666;DHT22;4370;48.916;8.380;2022-08-07T02:55:31;11.00;62.80
8666;DHT22;4370;48.916;8.380;2022-08-07T02:58:03;11.00;62.80
8666;DHT22;4370;48.916;8.380;2022-08-07T03:00:31;11.10;67.40
8666;DHT22;4370;48.916;8.380;2022-08-07T03:02:59;11.00;79.40
8666;DHT22;4370;48.916;8.380;2022-08-07T03:05:25;11.10;62.90
8666;DHT22;4370;48.916;8.380;2022-08-07T03:07:52;11.10;62.90
8666;DHT22;4370;48.916;8.380;2022-08-07T03:10:18;11.80;85.30
8666;DHT22;4370;48.916;8.380;2022-08-07T03:12:48;11.10;81.00
8666;DHT22;4370;48.916;8.380;2022-08-07T03:15:15;11.30;62.90
8666;DHT22;4370;48.916;8.380;2022-08-07T03:17:42;11.30;62.70
8666;DHT22;4370;48.916;8.380;2022-08-07T03:20:09;10.90;70.60
8666;DHT22;4370;48.916;8.380;2022-08-07T03:22:36;11.50;81.20
8666;DHT22;4370;48.916;8.380;2022-08-07T03:25:04;11.30;80.90
8666;DHT22;4370;48.916;8.380;2022-08-07T03:27:30;12.00;64.30
8666;DHT22;4370;48.916;8.380;2022-08-07T03:32:26;11.20;63.10
8666;DHT22;4370;48.916;8.380;2022-08-07T03:34:53;11.30;62.20
8666;DHT22;4370;48.916;8.380;2022-08-07T03:39:47;11.80;80.10
8666;DHT22;4370;48.916;8.380;2022-08-07T03:42:15;11.60;61.00
8666;DHT22;4370;48.916;8.380;2022-08-07T03:44:42;11.70;64.60
8666;DHT22;4370;48.916;8.380;2022-08-07T03:47:09;11.80;59.80
8666;DHT22;4370;48.916;8.380;2022-08-07T03:52:02;11.90;76.60
8666;DHT22;4370;48.916;8.380;2022-08-07T03:56:55;12.30;76.40
8666;DHT22;4370;48.916;8.380;2022-08-07T04:01:48;12.10;57.70
8666;DHT22;4370;48.916;8.380;2022-08-07T04:04:17;12.10;57.60
8666;DHT22;4370;48.916;8.380;2022-08-07T04:06:44;11.80;64.90
8666;DHT22;4370;48.916;8.380;2022-08-07T04:09:11;11.80;76.80
8666;DHT22;4370;48.916;8.380;2022-08-07T04:16:31;11.80;59.50
8666;DHT22;4370;48.916;8.380;2022-08-07T04:19:00;11.40;77.50
8666;DHT22;4370;48.916;8.380;2022-08-07T04:21:26;11.30;68.10
8666;DHT22;4370;48.916;8.380;2022-08-07T04:23:52;11.50;74.00
8666;DHT22;4370;48.916;8.380;2022-08-07T04:28:44;11.50;67.80
8666;DHT22;4370;48.916;8.380;2022-08-07T04:33:36;11.50;60.90
8666;DHT22;4370;48.916;8.380;2022-08-07T04:36:06;10.60;60.10
8666;DHT22;4370;48.916;8.380;2022-08-07T04:38:35;11.70;67.10
8666;DHT22;4370;48.916;8.380;2022-08-07T04:41:01;11.70;79.60
8666;DHT22;4370;48.916;8.380;2022-08-07T04:43:38;11.40;61.60
8666;DHT22;4370;48.916;8.380;2022-08-07T04:49:34;11.30;79.70
8666;DHT22;4370;48.916;8.380;2022-08-07T04:52:20;11.50;80.30
8666;DHT22;4370;48.916;8.380;2022-08-07T04:55:05;11.90;71.80
8666;DHT22;4370;48.916;8.380;2022-08-07T04:57:42;11.70;81.60
8666;DHT22;4370;48.916;8.380;2022-08-07T05:00:16;11.50;62.50
8666;DHT22;4370;48.916;8.380;2022-08-07T05:03:04;11.90;80.70
8666;DHT22;4370;48.916;8.380;2022-08-07T05:08:27;11.90;61.70
8666;DHT22;4370;48.916;8.380;2022-08-07T05:11:21;11.80;78.90
8666;DHT22;4370;48.916;8.380;2022-08-07T05:14:05;12.20;61.00
8666;DHT22;4370;48.916;8.380;2022-08-07T05:16:34;12.30;60.70
8666;DHT22;4370;48.916;8.380;2022-08-07T05:19:04;11.90;61.10
8666;DHT22;4370;48.916;8.380;2022-08-07T05:21:33;12.50;66.90
8666;DHT22;4370;48.916;8.380;2022-08-07T05:24:08;12.60;68.40
8666;DHT22;4370;48.916;8.380;2022-08-07T05:26:35;12.90;58.90
8666;DHT22;4370;48.916;8.380;2022-08-07T05:29:03;13.00;58.40
8666;DHT22;4370;48.916;8.380;2022-08-07T05:31:34;12.80;75.20
8666;DHT22;4370;48.916;8.380;2022-08-07T05:34:04;13.40;75.30
8666;DHT22;4370;48.916;8.380;2022-08-07T05:36:30;13.10;71.60
8666;DHT22;4370;48.916;8.380;2022-08-07T05:38:59;13.20;73.90
8666;DHT22;4370;48.916;8.380;2022-08-07T05:41:26;13.60;56.80
8666;DHT22;4370;48.916;8.380;2022-08-07T05:43:55;13.70;56.50
8666;DHT22;4370;48.916;8.380;2022-08-07T05:46:22;13.90;73.10
8666;DHT22;4370;48.916;8.380;2022-08-07T05:48:50;14.00;56.00
8666;DHT22;4370;48.916;8.380;2022-08-07T05:51:19;13.80;72.30
8666;DHT22;4370;48.916;8.380;2022-08-07T05:53:45;14.30;61.30
8666;DHT22;4370;48.916;8.380;2022-08-07T05:56:12;14.30;55.40
8666;DHT22;4370;48.916;8.380;2022-08-07T05:58:39;14.50;71.30
8666;DHT22;4370;48.916;8.380;2022-08-07T06:01:07;14.80;54.60
8666;DHT22;4370;48.916;8.380;2022-08-07T06:03:34;15.20;69.70
8666;DHT22;4370;48.916;8.380;2022-08-07T06:06:01;16.10;67.20
8666;DHT22;4370;48.916;8.380;2022-08-07T06:08:28;16.50;52.50
8666;DHT22;4370;48.916;8.380;2022-08-07T06:10:54;17.90;50.00
8666;DHT22;4370;48.916;8.380;2022-08-07T06:13:19;19.40;47.30
8666;DHT22;4370;48.916;8.380;2022-08-07T06:15:47;21.30;44.40
8666;DHT22;4370;48.916;8.380;2022-08-07T06:18:13;23.40;41.00
8666;DHT22;4370;48.916;8.380;2022-08-07T06:20:39;25.30;37.50
8666;DHT22;4370;48.916;8.380;2022-08-07T06:23:07;27.00;34.40
8666;DHT22;4370;48.916;8.380;2022-08-07T06:25:34;28.50;31.70
8666;DHT22;4370;48.916;8.380;2022-08-07T06:28:08;30.90;28.00
8666;DHT22;4370;48.916;8.380;2022-08-07T06:30:34;32.00;40.40
8666;DHT22;4370;48.916;8.380;2022-08-07T06:33:01;32.50;27.10
8666;DHT22;4370;48.916;8.380;2022-08-07T06:35:27;33.20;37.60
8666;DHT22;4370;48.916;8.380;2022-08-07T06:37:52;33.60;25.20
8666;DHT22;4370;48.916;8.380;2022-08-07T06:40:18;34.00;24.60
8666;DHT22;4370;48.916;8.380;2022-08-07T06:42:46;35.20;24.30
8666;DHT22;4370;48.916;8.380;2022-08-07T06:45:14;35.40;24.00
8666;DHT22;4370;48.916;8.380;2022-08-07T06:47:42;35.50;23.30
8666;DHT22;4370;48.916;8.380;2022-08-07T06:50:09;35.10;23.20
8666;DHT22;4370;48.916;8.380;2022-08-07T06:52:37;35.20;22.90
8666;DHT22;4370;48.916;8.380;2022-08-07T06:55:15;35.70;23.50
8666;DHT22;4370;48.916;8.380;2022-08-07T06:57:43;35.50;22.50
8666;DHT22;4370;48.916;8.380;2022-08-07T07:00:10;35.30;22.70
8666;DHT22;4370;48.916;8.380;2022-08-07T07:02:36;35.30;22.70
8666;DHT22;4370;48.916;8.380;2022-08-07T07:05:04;35.50;22.70
8666;DHT22;4370;48.916;8.380;2022-08-07T07:07:30;35.50;22.50
8666;DHT22;4370;48.916;8.380;2022-08-07T07:09:56;35.60;22.40
8666;DHT22;4370;48.916;8.380;2022-08-07T07:15:13;36.00;22.90
8666;DHT22;4370;48.916;8.380;2022-08-07T07:17:54;36.00;22.50
8666;DHT22;4370;48.916;8.380;2022-08-07T07:20:36;36.20;22.40
8666;DHT22;4370;48.916;8.380;2022-08-07T07:23:03;36.10;22.20
8666;DHT22;4370;48.916;8.380;2022-08-07T07:25:28;35.80;22.50
8666;DHT22;4370;48.916;8.380;2022-08-07T07:28:03;35.70;22.70
8666;DHT22;4370;48.916;8.380;2022-08-07T07:30:36;35.90;22.80
8666;DHT22;4370;48.916;8.380;2022-08-07T07:33:03;36.00;35.20
8666;DHT22;4370;48.916;8.380;2022-08-07T07:35:30;37.30;23.50
8666;DHT22;4370;48.916;8.380;2022-08-07T07:37:59;36.00;22.70
8666;DHT22;4370;48.916;8.380;2022-08-07T07:40:25;36.30;22.60
8666;DHT22;4370;48.916;8.380;2022-08-07T07:42:53;36.40;22.60
8666;DHT22;4370;48.916;8.380;2022-08-07T07:45:24;36.20;22.50
8666;DHT22;4370;48.916;8.380;2022-08-07T07:47:52;36.60;22.60
8666;DHT22;4370;48.916;8.380;2022-08-07T07:50:20;37.00;22.40
8666;DHT22;4370;48.916;8.380;2022-08-07T07:52:47;36.40;21.70
8666;DHT22;4370;48.916;8.380;2022-08-07T07:55:17;37.40;21.90
8666;DHT22;4370;48.916;8.380;2022-08-07T08:00:11;37.00;21.90
8666;DHT22;4370;48.916;8.380;2022-08-07T08:02:38;36.90;22.30
8666;DHT22;4370;48.916;8.380;2022-08-07T08:05:07;36.50;23.10
8666;DHT22;4370;48.916;8.380;2022-08-07T08:07:35;35.80;23.20
8666;DHT22;4370;48.916;8.380;2022-08-07T08:10:03;33.20;25.00
8666;DHT22;4370;48.916;8.380;2022-08-07T08:12:31;33.20;25.50
8666;DHT22;4370;48.916;8.380;2022-08-07T08:14:57;32.40;26.90
8666;DHT22;4370;48.916;8.380;2022-08-07T08:17:23;30.50;28.10
8666;DHT22;4370;48.916;8.380;2022-08-07T08:19:52;28.30;49.60
8666;DHT22;4370;48.916;8.380;2022-08-07T08:22:20;28.30;30.80
8666;DHT22;4370;48.916;8.380;2022-08-07T08:25:07;26.80;51.70
8666;DHT22;4370;48.916;8.380;2022-08-07T08:27:53;26.40;53.30
8666;DHT22;4370;48.916;8.380;2022-08-07T08:30:22;25.70;54.10
8666;DHT22;4370;48.916;8.380;2022-08-07T08:32:53;25.70;55.30
8666;DHT22;4370;48.916;8.380;2022-08-07T08:35:23;25.80;55.10
8666;DHT22;4370;48.916;8.380;2022-08-07T08:37:50;25.30;55.30
8666;DHT22;4370;48.916;8.380;2022-08-07T08:40:29;25.10;56.50
8666;DHT22;4370;48.916;8.380;2022-08-07T08:43:02;25.10;37.20
8666;DHT22;4370;48.916;8.380;2022-08-07T08:45:43;25.00;56.30
8666;DHT22;4370;48.916;8.380;2022-08-07T08:48:19;25.00;56.50
8666;DHT22;4370;48.916;8.380;2022-08-07T08:50:51;24.50;57.20
8666;DHT22;4370;48.916;8.380;2022-08-07T08:53:36;25.40;38.70
8666;DHT22;4370;48.916;8.380;2022-08-07T08:56:32;25.30;57.10
8666;DHT22;4370;48.916;8.380;2022-08-07T08:59:45;24.80;57.00
8666;DHT22;4370;48.916;8.380;2022-08-07T09:02:35;24.80;57.20
8666;DHT22;4370;48.916;8.380;2022-08-07T09:07:44;24.70;38.40
8666;DHT22;4370;48.916;8.380;2022-08-07T09:10:28;24.70;58.90
8666;DHT22;4370;48.916;8.380;2022-08-07T09:21:33;25.20;37.70
8666;DHT22;4370;48.916;8.380;2022-08-07T09:24:15;25.10;54.90
8666;DHT22;4370;48.916;8.380;2022-08-07T09:27:00;25.30;35.60
8666;DHT22;4370;48.916;8.380;2022-08-07T09:32:19;25.30;53.30
8666;DHT22;4370;48.916;8.380;2022-08-07T09:34:57;25.20;53.70
8666;DHT22;4370;48.916;8.380;2022-08-07T09:43:35;25.10;50.50
8666;DHT22;4370;48.916;8.380;2022-08-07T09:49:28;25.20;51.30
8666;DHT22;4370;48.916;8.380;2022-08-07T09:51:54;25.30;50.90
8666;DHT22;4370;48.916;8.380;2022-08-07T09:54:33;25.20;32.90
8666;DHT22;4370;48.916;8.380;2022-08-07T10:05:41;25.60;51.90
8666;DHT22;4370;48.916;8.380;2022-08-07T10:16:52;25.50;33.70
8666;DHT22;4370;48.916;8.380;2022-08-07T10:19:42;25.20;53.20
8666;DHT22;4370;48.916;8.380;2022-08-07T10:33:34;25.20;51.20
8666;DHT22;4370;48.916;8.380;2022-08-07T10:36:37;25.70;50.90
8666;DHT22;4370;48.916;8.380;2022-08-07T10:39:40;25.70;31.40
8666;DHT22;4370;48.916;8.380;2022-08-07T10:45:20;25.70;50.90
8666;DHT22;4370;48.916;8.380;2022-08-07T10:50:49;25.80;51.00
8666;DHT22;4370;48.916;8.380;2022-08-07T10:53:31;26.10;32.50
8666;DHT22;4370;48.916;8.380;2022-08-07T10:56:13;25.80;51.20
8666;DHT22;4370;48.916;8.380;2022-08-07T10:59:05;25.90;40.20
8666;DHT22;4370;48.916;8.380;2022-08-07T11:01:37;26.40;52.10
8666;DHT22;4370;48.916;8.380;2022-08-07T11:04:21;26.30;51.00
8666;DHT22;4370;48.916;8.380;2022-08-07T11:06:59;26.30;50.60
8666;DHT22;4370;48.916;8.380;2022-08-07T11:09:33;26.20;50.30
8666;DHT22;4370;48.916;8.380;2022-08-07T11:12:13;26.10;31.50
8666;DHT22;4370;48.916;8.380;2022-08-07T11:14:47;25.80;50.00
8666;DHT22;4370;48.916;8.380;2022-08-07T11:17:40;26.00;51.60
8666;DHT22;4370;48.916;8.380;2022-08-07T11:20:10;26.00;50.20
8666;DHT22;4370;48.916;8.380;2022-08-07T11:22:51;26.10;49.90
8666;DHT22;4370;48.916;8.380;2022-08-07T11:25:39;26.20;49.20
8666;DHT22;4370;48.916;8.380;2022-08-07T11:28:30;26.20;30.70
8666;DHT22;4370;48.916;8.380;2022-08-07T11:31:06;26.20;48.60
8666;DHT22;4370;48.916;8.380;2022-08-07T11:33:41;26.30;48.90
8666;DHT22;4370;48.916;8.380;2022-08-07T11:36:17;26.30;49.30
8666;DHT22;4370;48.916;8.380;2022-08-07T11:41:58;26.10;49.30
8666;DHT22;4370;48.916;8.380;2022-08-07T11:44:43;26.40;50.10
8666;DHT22;4370;48.916;8.380;2022-08-07T11:47:32;26.20;30.60
8666;DHT22;4370;48.916;8.380;2022-08-07T11:59:00;26.40;46.70
8666;DHT22;4370;48.916;8.380;2022-08-07T12:02:02;26.40;47.40
8666;DHT22;4370;48.916;8.380;2022-08-07T12:10:17;26.70;28.90
8666;DHT22;4370;48.916;8.380;2022-08-07T12:12:50;26.10;48.00
8666;DHT22;4370;48.916;8.380;2022-08-07T12:15:22;26.70;47.40
8666;DHT22;4370;48.916;8.380;2022-08-07T12:17:52;26.50;46.90
8666;DHT22;4370;48.916;8.380;2022-08-07T12:20:26;26.40;46.70
8666;DHT22;4370;48.916;8.380;2022-08-07T12:26:04;26.70;46.40
8666;DHT22;4370;48.916;8.380;2022-08-07T12:28:39;26.40;45.80
8666;DHT22;4370;48.916;8.380;2022-08-07T12:32:04;26.50;27.80
8666;DHT22;4370;48.916;8.380;2022-08-07T12:34:10;26.30;47.30
8666;DHT22;4370;48.916;8.380;2022-08-07T12:36:37;26.80;46.60
8666;DHT22;4370;48.916;8.380;2022-08-07T12:39:04;26.90;46.20
8666;DHT22;4370;48.916;8.380;2022-08-07T12:41:33;26.70;27.20
8666;DHT22;4370;48.916;8.380;2022-08-07T12:44:04;26.60;44.30
8666;DHT22;4370;48.916;8.380;2022-08-07T12:52:12;27.10;44.40
8666;DHT22;4370;48.916;8.380;2022-08-07T12:54:47;27.50;45.30
8666;DHT22;4370;48.916;8.380;2022-08-07T12:57:16;27.10;26.50
8666;DHT22;4370;48.916;8.380;2022-08-07T12:59:46;27.20;44.10
8666;DHT22;4370;48.916;8.380;2022-08-07T13:18:38;27.30;25.60
8666;DHT22;4370;48.916;8.380;2022-08-07T13:21:26;27.20;43.60
8666;DHT22;4370;48.916;8.380;2022-08-07T13:29:32;27.30;43.60
8666;DHT22;4370;48.916;8.380;2022-08-07T13:32:04;27.30;44.40
8666;DHT22;4370;48.916;8.380;2022-08-07T13:42:55;27.10;26.20
8666;DHT22;4370;48.916;8.380;2022-08-07T13:45:23;27.30;26.00
8666;DHT22;4370;48.916;8.380;2022-08-07T13:47:55;27.10;43.40
8666;DHT22;4370;48.916;8.380;2022-08-07T13:50:23;27.20;42.80
8666;DHT22;4370;48.916;8.380;2022-08-07T13:52:51;27.60;25.20
8666;DHT22;4370;48.916;8.380;2022-08-07T13:55:19;27.50;42.20
8666;DHT22;4370;48.916;8.380;2022-08-07T13:57:52;27.10;41.90
8666;DHT22;4370;48.916;8.380;2022-08-07T14:00:30;27.60;25.00
8666;DHT22;4370;48.916;8.380;2022-08-07T14:02:59;27.40;43.50
8666;DHT22;4370;48.916;8.380;2022-08-07T14:05:26;27.40;25.00
8666;DHT22;4370;48.916;8.380;2022-08-07T14:07:55;27.40;24.90
8666;DHT22;4370;48.916;8.380;2022-08-07T14:10:22;27.40;24.70
8666;DHT22;4370;48.916;8.380;2022-08-07T14:13:00;27.30;24.80
8666;DHT22;4370;48.916;8.380;2022-08-07T14:15:38;27.30;25.20
8666;DHT22;4370;48.916;8.380;2022-08-07T14:18:17;27.20;24.60
8666;DHT22;4370;48.916;8.380;2022-08-07T14:20:47;27.30;24.70
8666;DHT22;4370;48.916;8.380;2022-08-07T14:23:23;27.30;24.70
8666;DHT22;4370;48.916;8.380;2022-08-07T14:25:57;27.20;41.80
8666;DHT22;4370;48.916;8.380;2022-08-07T14:28:25;27.10;41.70
8666;DHT22;4370;48.916;8.380;2022-08-07T14:30:53;27.40;25.20
8666;DHT22;4370;48.916;8.380;2022-08-07T14:33:20;27.20;24.90
8666;DHT22;4370;48.916;8.380;2022-08-07T14:35:48;27.70;42.60
8666;DHT22;4370;48.916;8.380;2022-08-07T14:38:26;27.60;24.50
8666;DHT22;4370;48.916;8.380;2022-08-07T14:40:58;27.80;41.60
8666;DHT22;4370;48.916;8.380;2022-08-07T14:43:27;27.60;41.60
8666;DHT22;4370;48.916;8.380;2022-08-07T14:45:57;27.90;42.10
8666;DHT22;4370;48.916;8.380;2022-08-07T14:48:31;27.60;42.50
8666;DHT22;4370;48.916;8.380;2022-08-07T14:51:00;27.70;24.40
8666;DHT22;4370;48.916;8.380;2022-08-07T14:53:29;27.70;24.40
8666;DHT22;4370;48.916;8.380;2022-08-07T14:56:03;27.70;24.30
8666;DHT22;4370;48.916;8.380;2022-08-07T14:58:37;27.80;41.10
8666;DHT22;4370;48.916;8.380;2022-08-07T15:01:08;27.80;40.50
8666;DHT22;4370;48.916;8.380;2022-08-07T15:03:34;27.80;23.70
8666;DHT22;4370;48.916;8.380;2022-08-07T15:06:01;27.80;23.50
8666;DHT22;4370;48.916;8.380;2022-08-07T15:08:39;27.80;23.80
8666;DHT22;4370;48.916;8.380;2022-08-07T15:11:09;28.00;41.00
8666;DHT22;4370;48.916;8.380;2022-08-07T15:16:24;27.90;23.40
8666;DHT22;4370;48.916;8.380;2022-08-07T15:18:56;28.00;39.80
8666;DHT22;4370;48.916;8.380;2022-08-07T15:21:30;27.60;41.10
8666;DHT22;4370;48.916;8.380;2022-08-07T15:24:00;27.90;23.50
8666;DHT22;4370;48.916;8.380;2022-08-07T15:27:02;27.80;40.60
8666;DHT22;4370;48.916;8.380;2022-08-07T15:29:35;27.80;39.90
8666;DHT22;4370;48.916;8.380;2022-08-07T15:32:03;27.90;23.60
8666;DHT22;4370;48.916;8.380;2022-08-07T15:34:35;27.90;23.40
8666;DHT22;4370;48.916;8.380;2022-08-07T15:37:03;28.00;40.80
8666;DHT22;4370;48.916;8.380;2022-08-07T15:39:35;27.90;41.60
8666;DHT22;4370;48.916;8.380;2022-08-07T15:42:03;27.60;40.50
8666;DHT22;4370;48.916;8.380;2022-08-07T15:44:46;27.80;42.00
8666;DHT22;4370;48.916;8.380;2022-08-07T15:47:13;27.80;41.80
8666;DHT22;4370;48.916;8.380;2022-08-07T15:49:42;27.80;23.90
8666;DHT22;4370;48.916;8.380;2022-08-07T15:52:10;27.70;41.30
8666;DHT22;4370;48.916;8.380;2022-08-07T15:54:38;27.70;41.50
8666;DHT22;4370;48.916;8.380;2022-08-07T15:57:07;27.80;23.60
8666;DHT22;4370;48.916;8.380;2022-08-07T15:59:36;27.70;40.60
8666;DHT22;4370;48.916;8.380;2022-08-07T16:02:05;27.60;40.60
8666;DHT22;4370;48.916;8.380;2022-08-07T16:04:33;27.60;41.30
8666;DHT22;4370;48.916;8.380;2022-08-07T16:07:04;27.80;41.30
8666;DHT22;4370;48.916;8.380;2022-08-07T16:10:00;27.60;40.30
8666;DHT22;4370;48.916;8.380;2022-08-07T16:21:37;27.70;40.70
8666;DHT22;4370;48.916;8.380;2022-08-07T16:27:05;27.30;41.00
8666;DHT22;4370;48.916;8.380;2022-08-07T16:32:37;27.90;42.20
8666;DHT22;4370;48.916;8.380;2022-08-07T16:35:15;27.40;23.70
8666;DHT22;4370;48.916;8.380;2022-08-07T16:40:43;27.10;41.10
8666;DHT22;4370;48.916;8.380;2022-08-07T17:00:14;27.00;41.60
8666;DHT22;4370;48.916;8.380;2022-08-07T17:05:57;27.30;41.20
8666;DHT22;4370;48.916;8.380;2022-08-07T17:08:55;26.90;41.40
8666;DHT22;4370;48.916;8.380;2022-08-07T17:11:32;26.60;42.10
8666;DHT22;4370;48.916;8.380;2022-08-07T17:14:09;26.90;43.40
8666;DHT22;4370;48.916;8.380;2022-08-07T17:16:55;26.70;41.80
8666;DHT22;4370;48.916;8.380;2022-08-07T17:22:07;26.50;41.90
8666;DHT22;4370;48.916;8.380;2022-08-07T17:24:54;26.50;41.20
8666;DHT22;4370;48.916;8.380;2022-08-07T17:30:09;26.70;43.90
8666;DHT22;4370;48.916;8.380;2022-08-07T17:36:10;26.60;42.10
8666;DHT22;4370;48.916;8.380;2022-08-07T17:38:22;26.40;42.30
8666;DHT22;4370;48.916;8.380;2022-08-07T17:43:58;26.10;42.50
8666;DHT22;4370;48.916;8.380;2022-08-07T17:46:28;26.20;42.30
8666;DHT22;4370;48.916;8.380;2022-08-07T17:49:21;26.40;42.90
8666;DHT22;4370;48.916;8.380;2022-08-07T17:52:10;26.20;25.00
8666;DHT22;4370;48.916;8.380;2022-08-07T17:57:18;26.10;42.90
8666;DHT22;4370;48.916;8.380;2022-08-07T17:59:48;26.10;24.90
8666;DHT22;4370;48.916;8.380;2022-08-07T18:07:30;26.10;43.00
8666;DHT22;4370;48.916;8.380;2022-08-07T18:16:01;25.60;43.10
8666;DHT22;4370;48.916;8.380;2022-08-07T18:18:39;25.70;42.80
8666;DHT22;4370;48.916;8.380;2022-08-07T18:21:12;25.10;43.20
8666;DHT22;4370;48.916;8.380;2022-08-07T18:27:15;25.30;43.30
8666;DHT22;4370;48.916;8.380;2022-08-07T18:35:29;24.90;44.80
8666;DHT22;4370;48.916;8.380;2022-08-07T18:38:23;24.50;45.00
8666;DHT22;4370;48.916;8.380;2022-08-07T18:41:17;24.40;46.40
8666;DHT22;4370;48.916;8.380;2022-08-07T18:44:02;24.10;46.80
8666;DHT22;4370;48.916;8.380;2022-08-07T18:46:46;23.90;46.90
8666;DHT22;4370;48.916;8.380;2022-08-07T18:49:23;23.70;47.20
8666;DHT22;4370;48.916;8.380;2022-08-07T19:05:44;22.30;30.00
8666;DHT22;4370;48.916;8.380;2022-08-07T19:08:25;22.20;30.40
8666;DHT22;4370;48.916;8.380;2022-08-07T19:10:59;23.30;31.30
8666;DHT22;4370;48.916;8.380;2022-08-07T19:13:57;22.00;51.60
8666;DHT22;4370;48.916;8.380;2022-08-07T19:16:38;21.70;51.00
8666;DHT22;4370;48.916;8.380;2022-08-07T19:22:02;22.00;30.10
8666;DHT22;4370;48.916;8.380;2022-08-07T19:24:39;21.90;50.60
8666;DHT22;4370;48.916;8.380;2022-08-07T19:27:07;21.90;50.30
8666;DHT22;4370;48.916;8.380;2022-08-07T19:29:39;21.80;50.30
8666;DHT22;4370;48.916;8.380;2022-08-07T19:32:06;22.50;30.60
8666;DHT22;4370;48.916;8.380;2022-08-07T19:37:01;21.80;29.70
8666;DHT22;4370;48.916;8.380;2022-08-07T19:39:29;21.70;30.00
8666;DHT22;4370;48.916;8.380;2022-08-07T19:41:56;21.70;29.70
8666;DHT22;4370;48.916;8.380;2022-08-07T19:44:34;21.70;30.00
8666;DHT22;4370;48.916;8.380;2022-08-07T19:47:13;21.60;50.50
8666;DHT22;4370;48.916;8.380;2022-08-07T19:49:45;21.80;51.80
8666;DHT22;4370;48.916;8.380;2022-08-07T19:52:14;21.10;29.50
8666;DHT22;4370;48.916;8.380;2022-08-07T19:54:45;22.20;30.40
8666;DHT22;4370;48.916;8.380;2022-08-07T19:57:20;21.80;51.30
8666;DHT22;4370;48.916;8.380;2022-08-07T19:59:52;22.10;30.60
8666;DHT22;4370;48.916;8.380;2022-08-07T20:02:42;21.60;51.90
8666;DHT22;4370;48.916;8.380;2022-08-07T20:05:14;21.40;30.20
8666;DHT22;4370;48.916;8.380;2022-08-07T20:07:43;21.30;30.30
8666;DHT22;4370;48.916;8.380;2022-08-07T20:10:18;21.30;51.40
8666;DHT22;4370;48.916;8.380;2022-08-07T20:12:47;21.10;51.80
8666;DHT22;4370;48.916;8.380;2022-08-07T20:15:19;21.30;51.80
8666;DHT22;4370;48.916;8.380;2022-08-07T20:17:46;21.10;51.80
8666;DHT22;4370;48.916;8.380;2022-08-07T20:20:18;21.30;52.60
8666;DHT22;4370;48.916;8.380;2022-08-07T20:22:46;20.90;53.00
8666;DHT22;4370;48.916;8.380;2022-08-07T20:25:13;20.70;52.40
8666;DHT22;4370;48.916;8.380;2022-08-07T20:27:40;20.50;52.70
8666;DHT22;4370;48.916;8.380;2022-08-07T20:30:07;20.80;53.10
8666;DHT22;4370;48.916;8.380;2022-08-07T20:32:38;20.70;53.40
8666;DHT22;4370;48.916;8.380;2022-08-07T20:35:09;20.90;53.90
8666;DHT22;4370;48.916;8.380;2022-08-07T20:37:39;20.50;32.10
8666;DHT22;4370;48.916;8.380;2022-08-07T20:40:07;20.50;32.60
8666;DHT22;4370;48.916;8.380;2022-08-07T20:42:37;20.10;53.70
8666;DHT22;4370;48.916;8.380;2022-08-07T20:45:06;20.40;54.00
8666;DHT22;4370;48.916;8.380;2022-08-07T20:47:32;20.00;54.70
8666;DHT22;4370;48.916;8.380;2022-08-07T20:50:06;20.20;55.90
8666;DHT22;4370;48.916;8.380;2022-08-07T20:52:34;19.70;34.60
8666;DHT22;4370;48.916;8.380;2022-08-07T20:55:00;19.70;56.60
8666;DHT22;4370;48.916;8.380;2022-08-07T20:57:36;19.40;57.10
8666;DHT22;4370;48.916;8.380;2022-08-07T21:00:05;18.90;56.90